EZE weather

Ministro Pistarini International Airport
Buenos Aires, Buenos Aires Province, Argentina

Public forecast

Using degrees Celsius for public forecast. Weather courtesy of forecast.io.

METAR (pilot weather report)

Retrieved 2018/11/16 09:00 UTC (48 minutes ago):

SAEZ 160900Z 11005KT CAVOK 10/05 Q1021 NOSIG

TAF (pilot weather forecast)

Retrieved 2018/11/16 06:00 UTC (4 hours ago):

TAF SAEZ 160500Z 1606/1706 16010KT CAVOK TX23/1619Z TN09/1610Z TEMPO 1606/1610 7000 RA BKN030 BECMG 1607/1609 11010KT BECMG 1702/1704 08015KT